Terminal Aerodrome Forecast
Issued by NWS

Home | Current Version | Previous Version | Text Only | Print | Product List | Glossary On
Versions: 1 2 3 4 5 6 7 8 9 10 11 12 13 14 15 16 17 18
315
FTUS43 KAPX 040525
TAFMBL
TAF
KMBL 040525Z 0406/0506 VRB03KT P6SM OVC040
     FM041100 16004KT P6SM OVC045
     FM041600 16005KT P6SM OVC030
     FM041900 15006KT 1 1/2SM -SN BR OVC015
     FM050200 18006KT 1SM -SN BR OVC010
     FM050500 22007KT 3SM -SN BR OVC010=

USA.gov is the U.S. government's official web portal to all federal, state and local government web resources and services.